Time;durP1;ratioP1;P1;durP2;ratioP2;P2;SDS_P1;SDS_P2;PMS_P1;PMS_P2;Temp;Humidity;BMP_temperature;BMP_pressure;BME280_temperature;BME280_humidity;BME280_pressure;Samples;Min_cycle;Max_cycle;Signal;HPM_P1;HPM_P2
2022/03/24 00:00:38;;;;;;;69.65;31.30;;;;;;;4.37;47.44;101374.09;5111106;28;20031;-73
2022/03/24 00:03:04;;;;;;;67.47;29.25;;;;;;;4.27;47.50;101352.41;5108814;28;20019;-73
2022/03/24 00:05:30;;;;;;;70.55;30.35;;;;;;;4.35;47.58;101366.19;5109108;28;20081;-72
2022/03/24 00:07:55;;;;;;;73.03;30.55;;;;;;;4.29;47.84;101360.31;5109913;28;20074;-72
2022/03/24 00:10:21;;;;;;;80.22;32.13;;;;;;;4.23;48.25;101352.63;5110300;28;20111;-72
2022/03/24 00:12:46;;;;;;;59.30;29.30;;;;;;;4.13;48.14;101333.56;5110476;28;20065;-73
2022/03/24 00:15:12;;;;;;;67.75;31.27;;;;;;;4.25;48.83;101348.09;5110617;28;20077;-72
2022/03/24 00:17:38;;;;;;;74.88;29.20;;;;;;;4.23;48.67;101360.59;5109411;28;20046;-73
2022/03/24 00:20:04;;;;;;;74.63;30.77;;;;;;;4.20;48.65;101355.41;5111204;28;20027;-73
2022/03/24 00:22:30;;;;;;;66.93;29.42;;;;;;;4.09;48.35;101341.75;5111241;28;20470;-73
2022/03/24 00:24:55;;;;;;;66.88;29.17;;;;;;;4.13;48.57;101348.66;5108775;28;20031;-72
2022/03/24 00:27:21;;;;;;;76.35;31.67;;;;;;;3.99;48.35;101337.78;5111256;28;20499;-73
2022/03/24 00:29:47;;;;;;;73.30;31.58;;;;;;;3.97;48.21;101337.84;5110852;28;20079;-72
2022/03/24 00:32:13;;;;;;;63.15;28.08;;;;;;;3.87;48.67;101325.06;5110223;28;20428;-72
2022/03/24 00:34:40;;;;;;;64.55;28.70;;;;;;;3.88;48.90;101335.63;5109628;28;20091;-72
2022/03/24 00:37:07;;;;;;;69.75;28.02;;;;;;;3.84;48.99;101331.34;5110165;28;20184;-72
2022/03/24 00:39:34;;;;;;;78.28;30.75;;;;;;;3.71;49.14;101319.56;5111807;28;20083;-72
2022/03/24 00:42:01;;;;;;;60.13;27.30;;;;;;;3.81;49.37;101335.97;5113358;28;20024;-72
2022/03/24 00:44:27;;;;;;;62.92;29.08;;;;;;;3.72;49.60;101321.31;5112605;28;20051;-72
2022/03/24 00:46:53;;;;;;;68.53;28.08;;;;;;;3.72;49.76;101325.75;5113089;28;20067;-73
2022/03/24 00:49:21;;;;;;;61.17;27.75;;;;;;;3.73;49.85;101323.03;5112115;28;20024;-72
2022/03/24 00:51:48;;;;;;;64.97;27.73;;;;;;;3.72;49.96;101331.03;5112598;28;20024;-72
2022/03/24 00:54:14;;;;;;;60.63;26.65;;;;;;;3.53;49.79;101293.84;5110645;28;20019;-73
2022/03/24 00:56:39;;;;;;;65.40;28.75;;;;;;;3.58;50.26;101302.47;5111382;28;20394;-73
2022/03/24 00:59:05;;;;;;;66.80;27.27;;;;;;;3.48;50.54;101287.88;5111883;28;20040;-72
2022/03/24 01:01:30;;;;;;;64.25;26.48;;;;;;;3.52;50.70;101294.75;5110996;28;20459;-72
2022/03/24 01:03:56;;;;;;;61.72;27.30;;;;;;;3.46;50.45;101291.53;5111494;28;20475;-73
2022/03/24 01:06:25;;;;;;;59.95;26.30;;;;;;;3.59;50.46;101313.94;5109743;28;20472;-73
2022/03/24 01:08:50;;;;;;;56.70;26.17;;;;;;;3.59;50.64;101313.94;5109604;28;20039;-72
2022/03/24 01:11:17;;;;;;;56.30;24.20;;;;;;;3.59;50.27;101320.13;5110551;28;20034;-72
2022/03/24 01:13:43;;;;;;;56.55;25.77;;;;;;;3.54;50.25;101307.97;5110432;28;20097;-73
2022/03/24 01:16:09;;;;;;;57.97;24.70;;;;;;;3.51;50.32;101314.25;5109171;28;20027;-73
2022/03/24 01:18:37;;;;;;;55.65;25.10;;;;;;;3.51;50.58;101314.25;5110278;28;20031;-73
2022/03/24 01:21:04;;;;;;;49.35;22.83;;;;;;;3.52;50.83;101323.09;5112209;28;20023;-72
2022/03/24 01:23:30;;;;;;;54.92;23.48;;;;;;;3.38;51.24;101309.53;5113053;28;20039;-73
2022/03/24 01:25:59;;;;;;;54.97;24.92;;;;;;;3.46;51.01;101320.69;5114493;28;20019;-73
2022/03/24 01:28:25;;;;;;;54.63;25.05;;;;;;;3.37;51.03;101305.19;5111511;28;20039;-72
2022/03/24 01:30:50;;;;;;;56.65;25.92;;;;;;;3.41;50.62;101317.38;5114232;28;20020;-72
2022/03/24 01:33:16;;;;;;;58.42;26.15;;;;;;;3.25;50.02;101297.75;5114219;28;20382;-72
2022/03/24 01:35:41;;;;;;;54.03;25.70;;;;;;;3.33;50.07;101309.78;5112827;28;20029;-72
2022/03/24 01:38:07;;;;;;;48.70;22.80;;;;;;;3.25;50.17;101311.88;5113887;28;20111;-72
2022/03/24 01:40:32;;;;;;;50.10;23.40;;;;;;;3.29;50.06;101313.44;5113774;28;20045;-73
2022/03/24 01:42:58;;;;;;;54.83;23.73;;;;;;;3.22;50.08;101300.53;5113838;28;20035;-76
2022/03/24 01:45:23;;;;;;;48.85;23.20;;;;;;;3.19;50.38;101308.63;5114104;28;20027;-76
2022/03/24 01:47:49;;;;;;;57.33;23.27;;;;;;;3.07;49.99;101285.28;5113864;28;20035;-76
2022/03/24 01:50:15;;;;;;;49.90;23.92;;;;;;;3.03;50.21;101281.88;5113797;28;20027;-76
2022/03/24 01:52:43;;;;;;;57.45;23.23;;;;;;;3.10;50.50;101298.41;5113918;28;20432;-76
2022/03/24 01:55:09;;;;;;;47.40;22.20;;;;;;;3.09;50.47;101296.69;5112541;28;20031;-76
2022/03/24 01:57:35;;;;;;;48.72;23.17;;;;;;;3.06;50.47;101295.00;5113725;28;20110;-73
2022/03/24 02:00:02;;;;;;;49.60;22.90;;;;;;;2.98;50.49;101278.56;5113479;28;20549;-73
2022/03/24 02:02:27;;;;;;;51.63;22.45;;;;;;;2.95;50.85;101277.81;5113538;28;20494;-73
2022/03/24 02:04:53;;;;;;;59.60;24.17;;;;;;;2.98;50.70;101283.00;5113594;28;20023;-73
2022/03/24 02:07:18;;;;;;;52.22;21.92;;;;;;;2.82;50.87;101261.59;5113648;28;20034;-73
2022/03/24 02:09:44;;;;;;;44.97;22.30;;;;;;;2.88;51.22;101274.59;5113305;28;20027;-72
2022/03/24 02:12:11;;;;;;;52.92;21.75;;;;;;;2.91;51.17;101276.25;5113553;28;20129;-73
2022/03/24 02:14:38;;;;;;;50.47;22.90;;;;;;;2.81;51.61;101266.94;5111776;28;20024;-73
2022/03/24 02:17:05;;;;;;;43.70;22.38;;;;;;;2.79;51.54;101266.13;5113132;28;20031;-73
2022/03/24 02:19:31;;;;;;;49.30;23.13;;;;;;;2.83;52.08;101273.91;5113293;28;20459;-73
2022/03/24 02:22:05;;;;;;;52.22;20.95;;;;;;;2.82;52.07;101271.31;5111726;28;20133;-73
2022/03/24 02:24:31;;;;;;;48.05;21.75;;;;;;;2.74;52.11;101265.47;5109349;28;20110;-72
2022/03/24 02:26:59;;;;;;;55.10;22.27;;;;;;;2.69;51.93;101263.00;5107700;28;20495;-73
2022/03/24 02:29:25;;;;;;;43.53;21.67;;;;;;;2.75;52.18;101264.53;5112952;28;20055;-73
2022/03/24 02:31:51;;;;;;;54.85;21.45;;;;;;;2.71;52.29;101263.78;5112179;28;20112;-72
2022/03/24 02:34:40;;;;;;;54.67;22.75;;;;;;;2.61;52.17;101248.38;5107982;28;20023;-73
2022/03/24 02:37:08;;;;;;;56.92;22.90;;;;;;;2.63;52.30;101255.31;5111163;28;20022;-73
2022/03/24 02:39:53;;;;;;;51.47;21.92;;;;;;;2.66;52.32;101259.63;5113040;28;20463;-73
2022/03/24 02:42:21;;;;;;;52.22;20.38;;;;;;;2.60;52.76;101252.78;5144266;27;20034;-72
2022/03/24 02:44:58;;;;;;;48.55;23.17;;;;;;;2.58;52.88;101264.38;5112740;28;20077;-74
2022/03/24 02:47:23;;;;;;;53.90;22.27;;;;;;;2.50;52.87;101253.22;5109828;28;20032;-72
2022/03/24 02:49:51;;;;;;;57.70;23.60;;;;;;;2.55;53.19;101256.56;5112709;28;20031;-72
2022/03/24 02:52:17;;;;;;;65.00;24.55;;;;;;;2.41;53.60;101232.44;5110082;28;20102;-72
2022/03/24 02:54:42;;;;;;;58.33;22.92;;;;;;;2.46;53.66;101248.97;5112490;28;20123;-73
2022/03/24 02:57:08;;;;;;;54.45;22.58;;;;;;;2.42;53.65;101253.53;5110947;28;20019;-73
2022/03/24 02:59:34;;;;;;;56.10;23.23;;;;;;;2.24;53.30;101228.66;5110876;28;20070;-72
2022/03/24 03:02:06;;;;;;;58.97;24.25;;;;;;;2.28;53.54;101237.31;5112225;28;20039;-73
2022/03/24 03:04:32;;;;;;;52.38;22.42;;;;;;;2.32;53.81;101250.38;5111089;28;20035;-73
2022/03/24 03:07:00;;;;;;;56.13;23.10;;;;;;;2.21;53.40;101234.06;5112285;28;20026;-73
2022/03/24 03:09:26;;;;;;;68.75;23.08;;;;;;;2.19;53.98;101235.91;5112160;28;20063;-72
2022/03/24 03:11:52;;;;;;;55.30;22.52;;;;;;;2.15;53.95;101236.94;5112206;28;20070;-73
2022/03/24 03:14:19;;;;;;;54.78;23.25;;;;;;;2.21;53.86;101260.53;5112052;28;20027;-72
2022/03/24 03:16:45;;;;;;;47.58;21.90;;;;;;;2.16;53.97;101246.59;5111843;28;20027;-72
2022/03/24 03:19:19;;;;;;;50.63;22.35;;;;;;;2.15;54.27;101258.13;5112168;28;20061;-74
2022/03/24 03:21:46;;;;;;;51.47;22.08;;;;;;;2.07;53.86;101252.25;5111764;28;20034;-73
2022/03/24 03:24:12;;;;;;;58.55;24.02;;;;;;;2.08;53.99;101250.47;5112571;28;20069;-72
2022/03/24 03:26:38;;;;;;;60.47;23.50;;;;;;;2.09;53.88;101260.13;5111529;28;20051;-72
2022/03/24 03:29:06;;;;;;;54.22;23.27;;;;;;;2.05;53.92;101258.53;5109680;28;20027;-73
2022/03/24 03:31:31;;;;;;;52.28;22.13;;;;;;;1.96;54.29;101249.16;5111771;28;20053;-73
2022/03/24 03:33:58;;;;;;;50.10;21.58;;;;;;;1.93;54.15;101232.53;5111463;28;20023;-76
2022/03/24 03:36:24;;;;;;;56.30;23.10;;;;;;;1.99;54.08;101251.69;5111889;28;20118;-75
2022/03/24 03:38:50;;;;;;;48.95;21.77;;;;;;;1.86;54.20;101236.34;5111127;28;20417;-72
2022/03/24 03:41:17;;;;;;;52.53;21.55;;;;;;;1.94;54.44;101243.06;5111527;28;20028;-72
2022/03/24 03:43:44;;;;;;;54.88;20.92;;;;;;;1.87;54.41;101246.84;5107694;28;20031;-72
2022/03/24 03:46:10;;;;;;;46.60;20.33;;;;;;;1.91;54.78;101252.91;5111345;28;20054;-72
2022/03/24 03:48:40;;;;;;;49.13;20.83;;;;;;;1.89;54.83;101249.44;5111471;28;20740;-73
2022/03/24 03:51:06;;;;;;;43.88;20.92;;;;;;;1.89;54.84;101254.72;5142298;27;20023;-73
2022/03/24 03:53:33;;;;;;;52.30;22.10;;;;;;;1.87;55.24;101257.44;5109401;28;20069;-73
2022/03/24 03:55:59;;;;;;;58.33;21.60;;;;;;;1.75;55.26;101230.59;5111057;28;20031;-72
2022/03/24 03:58:25;;;;;;;50.65;20.20;;;;;;;1.81;55.27;101247.06;5110480;28;20123;-72
2022/03/24 04:00:53;;;;;;;50.53;20.65;;;;;;;1.81;55.36;101244.44;5111068;28;20521;-72
2022/03/24 04:03:19;;;;;;;52.78;21.45;;;;;;;1.73;55.13;101230.66;5110428;28;20062;-72
2022/03/24 04:05:45;;;;;;;54.55;21.58;;;;;;;1.76;55.16;101241.13;5109589;28;20051;-73
2022/03/24 04:08:11;;;;;;;55.30;21.45;;;;;;;1.79;55.20;101253.34;5111300;28;20058;-72
2022/03/24 04:10:40;;;;;;;50.75;21.23;;;;;;;1.73;55.58;101237.72;5101356;28;20024;-72
2022/03/24 04:13:06;;;;;;;53.33;20.50;;;;;;;1.78;55.38;101247.19;5110856;28;20398;-73
2022/03/24 04:15:33;;;;;;;51.10;22.17;;;;;;;1.68;55.58;101232.59;5110500;28;20102;-73
2022/03/24 04:17:59;;;;;;;58.30;23.38;;;;;;;1.69;55.30;101236.97;5109699;28;20067;-72
2022/03/24 04:20:26;;;;;;;50.88;22.80;;;;;;;1.67;55.46;101241.44;5110807;28;20051;-72
2022/03/24 04:22:52;;;;;;;47.35;21.88;;;;;;;1.66;55.98;101234.44;5110688;28;20688;-72
2022/03/24 04:25:18;;;;;;;50.78;22.15;;;;;;;1.69;56.01;101239.63;5110975;28;20042;-76
2022/03/24 04:27:44;;;;;;;50.63;21.00;;;;;;;1.61;55.95;101230.25;5110593;28;20492;-75
2022/03/24 04:30:12;;;;;;;48.38;19.95;;;;;;;1.62;56.31;101234.63;5111141;28;20024;-76
2022/03/24 04:32:41;;;;;;;54.97;20.98;;;;;;;1.62;55.99;101231.97;5109757;28;20028;-75
2022/03/24 04:35:07;;;;;;;41.30;20.02;;;;;;;1.58;55.82;101236.50;5111120;28;20023;-75
2022/03/24 04:37:33;;;;;;;45.90;19.33;;;;;;;1.63;55.60;101231.03;5111002;28;20039;-76
2022/03/24 04:39:59;;;;;;;37.33;19.45;;;;;;;1.66;55.77;101246.78;5111014;28;20064;-76
2022/03/24 04:42:24;;;;;;;55.05;21.17;;;;;;;1.60;55.50;101228.50;5111040;28;20111;-75
2022/03/24 04:44:50;;;;;;;47.10;19.63;;;;;;;1.62;55.46;101232.81;5109610;28;20019;-75
2022/03/24 04:47:16;;;;;;;44.10;20.20;;;;;;;1.59;55.46;101227.66;5110875;28;20157;-75
2022/03/24 04:49:42;;;;;;;52.30;21.70;;;;;;;1.58;55.42;101220.63;5111081;28;20081;-76
2022/03/24 04:52:08;;;;;;;45.63;21.35;;;;;;;1.63;55.66;101231.91;5110965;28;20019;-75
2022/03/24 04:54:34;;;;;;;46.67;21.45;;;;;;;1.66;55.71;101236.22;5111967;28;20034;-75
2022/03/24 04:57:00;;;;;;;45.58;21.00;;;;;;;1.63;55.34;101229.28;5114970;28;20038;-75
2022/03/24 04:59:26;;;;;;;43.75;21.08;;;;;;;1.65;55.55;101232.69;5115078;28;20406;-75
2022/03/24 05:01:52;;;;;;;40.83;19.80;;;;;;;1.70;55.46;101236.06;5115239;27;20103;-75
2022/03/24 05:04:17;;;;;;;40.88;20.88;;;;;;;1.74;55.88;101235.00;5113505;28;20051;-73
2022/03/24 05:06:43;;;;;;;44.88;20.33;;;;;;;1.75;55.48;101228.81;5114643;28;20510;-72
2022/03/24 05:09:08;;;;;;;39.17;19.90;;;;;;;1.82;55.82;101238.25;5113292;28;20023;-72
2022/03/24 05:11:34;;;;;;;51.20;20.27;;;;;;;1.78;55.62;101225.19;5114735;28;20027;-72
2022/03/24 05:14:01;;;;;;;40.65;20.63;;;;;;;1.90;55.68;101230.88;5114516;28;20033;-72
2022/03/24 05:16:27;;;;;;;46.92;19.50;;;;;;;1.89;55.92;101225.63;5114482;28;20527;-72
2022/03/24 05:18:53;;;;;;;44.85;19.88;;;;;;;1.97;55.89;101236.81;5114256;28;20031;-72
2022/03/24 05:21:19;;;;;;;34.35;19.73;;;;;;;1.97;55.92;101221.78;5114067;28;20123;-72
2022/03/24 05:23:44;;;;;;;41.78;18.38;;;;;;;2.03;55.69;101225.97;5110900;28;20524;-72
2022/03/24 05:26:10;;;;;;;36.70;18.17;;;;;;;2.10;55.91;101225.66;5114253;28;20047;-72
2022/03/24 05:28:36;;;;;;;38.13;19.92;;;;;;;2.15;56.03;101223.72;5114033;28;20112;-72
2022/03/24 05:31:02;;;;;;;37.63;18.67;;;;;;;2.22;56.21;101222.56;5113308;28;20135;-72
2022/03/24 05:33:27;;;;;;;44.22;19.42;;;;;;;2.35;55.74;101234.38;5113736;28;20024;-71
2022/03/24 05:35:53;;;;;;;35.20;17.67;;;;;;;2.45;55.40;101236.66;5113895;28;20143;-71
2022/03/24 05:38:18;;;;;;;33.88;18.05;;;;;;;2.52;55.36;101232.84;5114177;28;20031;-72
2022/03/24 05:40:44;;;;;;;38.47;17.85;;;;;;;2.50;55.23;101217.03;5112598;28;20039;-72
2022/03/24 05:43:10;;;;;;;37.10;16.83;;;;;;;2.65;55.08;101227.00;5112466;28;20035;-72
2022/03/24 05:45:36;;;;;;;26.48;15.20;;;;;;;2.95;53.49;101236.31;5114114;28;20130;-72
2022/03/24 05:48:02;;;;;;;31.02;16.08;;;;;;;3.11;52.72;101224.13;5113716;28;20029;-72
2022/03/24 05:50:29;;;;;;;30.00;14.57;;;;;;;3.38;51.09;101230.88;5111146;28;20027;-72
2022/03/24 05:52:56;;;;;;;34.28;15.65;;;;;;;3.66;50.75;101236.69;5113146;28;20031;-72
2022/03/24 05:55:23;;;;;;;30.88;15.13;;;;;;;3.78;50.49;101225.50;5113286;27;20072;-72
2022/03/24 05:57:49;;;;;;;42.35;16.23;;;;;;;4.15;49.00;101230.84;5113346;28;20047;-72
2022/03/24 06:00:15;;;;;;;36.28;16.65;;;;;;;4.46;48.25;101224.94;5113278;28;20036;-72
2022/03/24 06:02:41;;;;;;;35.55;17.23;;;;;;;4.70;47.90;101237.00;5111988;28;20027;-72
2022/03/24 06:05:12;;;;;;;38.70;16.50;;;;;;;4.95;46.99;101234.00;5113340;28;20364;-72
2022/03/24 06:07:39;;;;;;;35.10;16.25;;;;;;;5.22;46.43;101216.66;5110537;28;20028;-72
2022/03/24 06:10:06;;;;;;;37.47;15.57;;;;;;;5.45;45.84;101225.13;5113356;28;20036;-72
2022/03/24 06:12:32;;;;;;;41.22;16.92;;;;;;;5.66;45.66;101234.66;5111835;28;20047;-72
2022/03/24 06:14:58;;;;;;;37.83;15.52;;;;;;;5.88;44.82;101216.63;5113184;28;20027;-72
2022/03/24 06:17:24;;;;;;;44.75;17.10;;;;;;;6.29;44.18;101220.53;5111768;28;20024;-73
2022/03/24 06:19:50;;;;;;;37.60;15.63;;;;;;;6.52;43.68;101225.41;5111639;28;20031;-72
2022/03/24 06:22:16;;;;;;;42.67;15.85;;;;;;;6.64;43.17;101222.06;5112864;27;20020;-73
2022/03/24 06:24:42;;;;;;;44.60;16.45;;;;;;;6.90;43.43;101223.22;5111484;28;20087;-73
2022/03/24 06:27:08;;;;;;;39.80;16.27;;;;;;;7.09;43.14;101221.19;5112616;28;20051;-73
2022/03/24 06:29:34;;;;;;;33.20;14.85;;;;;;;7.32;42.33;101204.66;5110214;28;20028;-73
2022/03/24 06:32:00;;;;;;;39.42;16.08;;;;;;;7.56;41.78;101199.63;5112343;28;20030;-72
2022/03/24 06:34:26;;;;;;;37.13;15.02;;;;;;;7.84;41.05;101200.50;5111087;28;20039;-72
2022/03/24 06:36:51;;;;;;;38.55;14.80;;;;;;;8.21;40.41;101215.06;5112585;28;20038;-73
2022/03/24 06:39:17;;;;;;;39.88;15.70;;;;;;;8.54;39.55;101220.94;5110064;28;20055;-71
2022/03/24 06:41:43;;;;;;;40.97;15.80;;;;;;;8.75;39.23;101191.00;5110996;28;20031;-71
2022/03/24 06:44:09;;;;;;;35.70;15.13;;;;;;;9.15;37.74;101208.75;5112486;28;20027;-71
2022/03/24 06:46:35;;;;;;;29.67;14.05;;;;;;;9.29;37.75;101205.16;5111058;28;20122;-72
2022/03/24 06:49:01;;;;;;;31.90;15.07;;;;;;;9.60;37.12;101188.66;5112208;28;20541;-72
2022/03/24 06:51:26;;;;;;;34.90;14.25;;;;;;;9.91;36.54;101195.38;5110848;28;20027;-71
2022/03/24 06:53:52;;;;;;;36.10;14.40;;;;;;;10.17;35.12;101195.28;5110774;28;20047;-71
2022/03/24 06:56:17;;;;;;;34.42;13.40;;;;;;;10.49;35.11;101203.66;5112314;28;20023;-72
2022/03/24 06:58:43;;;;;;;38.80;13.95;;;;;;;10.76;34.53;101188.19;5112064;28;20059;-72
2022/03/24 07:01:10;;;;;;;28.60;13.23;;;;;;;11.03;33.95;101186.97;5112260;28;20113;-72
2022/03/24 07:03:36;;;;;;;34.88;13.40;;;;;;;11.41;33.29;101190.25;5111800;28;20042;-72
2022/03/24 07:06:01;;;;;;;24.48;12.80;;;;;;;11.60;32.68;101175.41;5110703;28;20391;-72
2022/03/24 07:08:27;;;;;;;25.20;12.77;;;;;;;11.87;32.17;101176.81;5110546;28;20023;-72
2022/03/24 07:10:53;;;;;;;21.38;12.27;;;;;;;12.09;32.66;101182.16;5111772;28;20020;-72
2022/03/24 07:13:19;;;;;;;27.20;12.40;;;;;;;12.33;32.62;101169.44;5107412;28;20092;-72
2022/03/24 07:15:44;;;;;;;26.10;13.10;;;;;;;12.67;31.68;101184.50;5104667;28;20023;-72
2022/03/24 07:18:10;;;;;;;22.92;12.68;;;;;;;12.90;31.27;101169.97;5111460;28;20088;-72
2022/03/24 07:20:36;;;;;;;19.83;11.85;;;;;;;13.16;31.15;101154.34;5111684;28;20111;-72
2022/03/24 07:23:03;;;;;;;27.25;13.27;;;;;;;13.49;30.16;101149.63;5110231;28;20068;-72
2022/03/24 07:25:30;;;;;;;21.95;12.32;;;;;;;13.86;30.01;101168.78;5110153;28;20074;-72
2022/03/24 07:27:57;;;;;;;21.02;12.15;;;;;;;14.15;29.70;101174.34;5109744;28;20050;-72
2022/03/24 07:30:23;;;;;;;24.15;12.18;;;;;;;14.33;29.52;101165.47;5111546;28;20084;-72
2022/03/24 07:32:49;;;;;;;19.50;12.45;;;;;;;14.56;29.02;101156.16;5111397;28;20418;-73
2022/03/24 07:35:18;;;;;;;21.83;10.95;;;;;;;14.71;28.94;101135.00;5110197;28;20051;-73
2022/03/24 07:37:46;;;;;;;20.65;12.02;;;;;;;15.11;28.37;101160.88;5107595;28;20475;-72
2022/03/24 07:40:12;;;;;;;22.95;10.93;;;;;;;15.32;28.31;101153.44;5111292;28;20051;-72
2022/03/24 07:42:39;;;;;;;17.83;11.40;;;;;;;15.64;27.54;101148.56;5110007;28;20453;-72
2022/03/24 07:45:06;;;;;;;20.70;12.90;;;;;;;15.92;27.81;101159.44;5109566;28;20031;-72
2022/03/24 07:47:31;;;;;;;26.58;13.73;;;;;;;16.15;27.56;101149.94;5107513;28;20030;-72
2022/03/24 07:49:57;;;;;;;23.35;11.60;;;;;;;16.74;26.63;101161.16;5111082;28;20530;-73
2022/03/24 07:52:26;;;;;;;20.95;10.93;;;;;;;17.06;26.31;101162.28;5110997;27;20031;-72
2022/03/24 07:55:00;;;;;;;19.70;12.10;;;;;;;17.40;26.31;101147.00;5111027;28;20038;-72
2022/03/24 07:57:26;;;;;;;;;;;;;;;17.64;25.42;101149.91;5111471;28;20034;-73
2022/03/24 07:59:52;;;;;;;19.08;11.48;;;;;;;18.60;24.40;101148.72;5110799;28;19916;-72
2022/03/24 08:02:18;;;;;;;21.70;11.73;;;;;;;19.41;24.34;101132.28;5111007;28;20051;-72
2022/03/24 08:04:44;;;;;;;18.30;11.20;;;;;;;20.39;23.12;101144.63;5109576;28;20700;-72
2022/03/24 08:07:09;;;;;;;16.55;11.15;;;;;;;21.49;22.09;101127.69;5109694;28;20031;-72
2022/03/24 08:09:35;;;;;;;18.10;10.38;;;;;;;22.70;20.97;101142.69;5109384;28;20031;-72
2022/03/24 08:12:01;;;;;;;20.45;11.25;;;;;;;24.33;19.37;101129.34;5110852;28;20027;-72
2022/03/24 08:14:27;;;;;;;14.65;10.93;;;;;;;25.17;18.84;101125.16;5110414;28;20121;-73
2022/03/24 08:16:52;;;;;;;12.93;9.57;;;;;;;26.73;17.12;101137.84;5109387;28;20120;-72
2022/03/24 08:19:18;;;;;;;19.85;9.15;;;;;;;27.22;16.74;101121.44;5108145;28;20106;-74
2022/03/24 08:21:43;;;;;;;17.95;9.63;;;;;;;27.86;16.46;101124.72;5110499;28;20112;-73
2022/03/24 08:24:09;;;;;;;17.17;9.82;;;;;;;28.40;15.88;101116.47;5107663;28;20054;-73
2022/03/24 08:26:35;;;;;;;18.63;9.52;;;;;;;28.98;15.90;101138.03;5108962;28;20144;-73
2022/03/24 08:29:02;;;;;;;17.73;9.35;;;;;;;29.94;14.77;101126.47;5109916;28;20024;-73
2022/03/24 08:31:28;;;;;;;16.35;8.80;;;;;;;30.40;14.66;101120.88;5109148;28;20510;-73
2022/03/24 08:33:54;;;;;;;15.73;8.40;;;;;;;30.86;13.91;101124.59;5108996;28;20028;-73
2022/03/24 08:36:19;;;;;;;15.48;9.13;;;;;;;31.02;14.00;101124.66;5110523;28;20032;-73
2022/03/24 08:38:45;;;;;;;13.43;9.15;;;;;;;31.57;13.66;101113.72;5109125;28;20367;-73
2022/03/24 08:41:10;;;;;;;16.40;8.68;;;;;;;32.48;12.66;101106.50;5110361;28;20114;-73
2022/03/24 08:43:36;;;;;;;15.18;8.75;;;;;;;32.90;12.32;101117.00;5110331;28;20039;-73
2022/03/24 08:46:02;;;;;;;14.82;7.95;;;;;;;33.25;12.37;101121.00;5109087;28;20023;-73
2022/03/24 08:48:28;;;;;;;15.25;9.02;;;;;;;33.18;12.31;101108.41;5110414;28;20119;-73
2022/03/24 08:50:53;;;;;;;16.92;8.20;;;;;;;33.11;12.45;101107.78;5110349;28;20107;-73
2022/03/24 08:53:19;;;;;;;10.98;8.00;;;;;;;33.34;11.99;101113.00;5110195;28;20023;-73
2022/03/24 08:55:44;;;;;;;8.93;8.02;;;;;;;33.77;11.84;101101.69;5110440;28;20506;-73
2022/03/24 08:58:10;;;;;;;14.60;9.48;;;;;;;33.84;12.27;101086.44;5110141;28;20023;-73
2022/03/24 09:00:35;;;;;;;11.68;9.73;;;;;;;34.03;12.09;101100.78;5110296;28;20027;-73
2022/03/24 09:03:01;;;;;;;14.25;8.80;;;;;;;34.16;11.63;101084.41;5110323;28;20011;-73
2022/03/24 09:05:26;;;;;;;10.55;7.38;;;;;;;34.59;11.49;101095.22;5108971;28;20024;-75
2022/03/24 09:07:52;;;;;;;12.98;8.05;;;;;;;34.70;11.21;101090.50;5110265;28;20028;-75
2022/03/24 09:10:17;;;;;;;10.93;8.07;;;;;;;34.65;11.54;101087.69;5109112;28;20455;-73
2022/03/24 09:12:46;;;;;;;12.93;9.05;;;;;;;35.25;11.31;101087.00;5109975;28;20490;-73
2022/03/24 09:15:17;;;;;;;9.18;7.78;;;;;;;35.33;11.09;101087.31;5108692;28;20036;-73
2022/03/24 09:17:43;;;;;;;10.32;7.85;;;;;;;35.55;10.90;101071.13;5108789;28;20123;-73
2022/03/24 09:20:12;;;;;;;12.13;7.60;;;;;;;35.53;10.99;101078.09;5110276;28;20086;-73
2022/03/24 09:22:39;;;;;;;11.30;7.80;;;;;;;35.88;10.52;101076.09;5110080;28;20386;-73
2022/03/24 09:25:05;;;;;;;14.57;7.32;;;;;;;35.58;10.78;101084.50;5109923;28;20026;-74
2022/03/24 09:27:31;;;;;;;16.27;7.43;;;;;;;35.30;11.15;101079.47;5109820;28;20048;-74
2022/03/24 09:29:56;;;;;;;11.77;7.85;;;;;;;35.71;10.67;101063.53;5107323;28;20028;-74
2022/03/24 09:32:22;;;;;;;11.18;7.18;;;;;;;35.86;10.80;101074.72;5108540;28;20042;-74
2022/03/24 09:34:48;;;;;;;14.60;7.68;;;;;;;35.43;11.13;101076.13;5108867;28;20027;-73
2022/03/24 09:37:17;;;;;;;9.05;7.43;;;;;;;35.76;10.32;101066.34;5110017;28;20034;-73
2022/03/24 09:39:43;;;;;;;12.45;7.57;;;;;;;36.31;10.14;101061.47;5106348;28;20030;-73
2022/03/24 09:42:09;;;;;;;12.40;8.40;;;;;;;35.65;10.74;101048.75;5112931;28;20110;-74
2022/03/24 09:44:34;;;;;;;13.40;7.50;;;;;;;36.18;10.41;101059.28;5113721;28;20514;-74
2022/03/24 09:47:00;;;;;;;15.43;7.03;;;;;;;36.18;10.14;101048.09;5113695;28;20034;-76
2022/03/24 09:49:25;;;;;;;8.52;6.30;;;;;;;36.11;10.57;101060.69;5111266;28;20098;-76
2022/03/24 09:51:51;;;;;;;10.25;7.00;;;;;;;35.98;10.40;101041.75;5112265;28;20031;-76
2022/03/24 09:54:16;;;;;;;11.65;6.90;;;;;;;35.88;10.06;101048.19;5113603;28;20024;-75
2022/03/24 09:56:42;;;;;;;12.75;6.15;;;;;;;35.74;10.19;101047.06;5113589;28;20530;-76
2022/03/24 09:59:09;;;;;;;11.48;6.63;;;;;;;35.55;10.08;101046.00;5113508;28;20447;-76
2022/03/24 10:01:41;;;;;;;8.90;6.05;;;;;;;34.91;10.06;101052.38;5112245;28;20028;-76
2022/03/24 10:04:11;;;;;;;7.65;5.75;;;;;;;33.59;10.66;101057.59;5113475;28;20076;-76
2022/03/24 10:06:39;;;;;;;8.43;5.63;;;;;;;33.54;10.61;101041.69;5112203;28;20063;-76
2022/03/24 10:09:06;;;;;;;7.20;5.93;;;;;;;32.15;11.01;101047.44;5113341;28;20116;-76
2022/03/24 10:11:31;;;;;;;7.18;5.97;;;;;;;30.67;11.91;101047.19;5111968;28;20024;-76
2022/03/24 10:13:58;;;;;;;9.38;6.03;;;;;;;30.29;11.78;101046.16;5113422;28;20035;-75
2022/03/24 10:16:33;;;;;;;8.23;5.43;;;;;;;28.71;13.01;101049.19;5112114;28;20028;-76
2022/03/24 10:19:01;;;;;;;11.07;5.80;;;;;;;28.53;12.76;101039.03;5109632;28;20027;-76
2022/03/24 10:21:37;;;;;;;13.30;6.18;;;;;;;28.14;13.02;101036.75;5113269;28;20042;-76
2022/03/24 10:24:13;;;;;;;9.32;6.05;;;;;;;27.41;13.53;101042.44;5113506;28;20024;-76
2022/03/24 10:26:43;;;;;;;17.27;6.32;;;;;;;27.41;12.64;101048.81;5110236;28;20098;-75
2022/03/24 10:29:11;;;;;;;10.40;6.35;;;;;;;26.33;13.74;101015.22;5111564;28;20030;-76
2022/03/24 10:31:37;;;;;;;7.72;5.57;;;;;;;25.77;14.13;101037.03;5112937;28;20479;-76
2022/03/24 10:34:03;;;;;;;11.55;5.43;;;;;;;25.18;14.60;101021.66;5111643;28;20469;-76
2022/03/24 10:36:29;;;;;;;10.50;6.68;;;;;;;25.75;13.73;101024.53;5111653;28;20097;-76
2022/03/24 10:39:04;;;;;;;12.82;6.13;;;;;;;25.64;14.07;101019.72;5111319;28;20038;-75
2022/03/24 10:41:35;;;;;;;10.23;5.93;;;;;;;25.57;14.18;101019.72;5111513;28;20141;-76
2022/03/24 10:44:10;;;;;;;10.98;6.35;;;;;;;25.01;15.06;101028.63;5111193;28;20035;-76
2022/03/24 10:46:39;;;;;;;12.07;7.00;;;;;;;24.56;15.29;101021.16;5110288;28;20027;-75
2022/03/24 10:49:23;;;;;;;12.13;7.53;;;;;;;24.23;15.97;101015.59;5111072;28;20027;-75
2022/03/24 10:51:50;;;;;;;;;;;;;;;23.89;16.31;101027.44;5110761;28;20035;-76
2022/03/24 10:54:19;;;;;;;12.63;9.73;;;;;;;23.71;16.46;101021.66;5110694;28;20002;-76
2022/03/24 10:57:00;;;;;;;10.98;8.20;;;;;;;23.55;16.68;101013.78;5112302;28;20035;-76
2022/03/24 10:59:30;;;;;;;15.63;7.82;;;;;;;23.34;16.68;101002.06;5112311;28;20028;-77
2022/03/24 11:01:55;;;;;;;9.55;7.90;;;;;;;23.18;16.73;101005.88;5110878;28;20356;-76
2022/03/24 11:04:21;;;;;;;21.73;8.98;;;;;;;23.14;17.48;101006.47;5112330;28;20022;-76
2022/03/24 11:06:53;;;;;;;13.63;8.73;;;;;;;23.12;16.99;101001.22;5112420;28;20050;-76
2022/03/24 11:09:23;;;;;;;11.95;8.52;;;;;;;22.98;17.56;100999.41;5109077;28;20027;-76
2022/03/24 11:12:26;;;;;;;11.55;8.45;;;;;;;22.84;17.54;101003.09;5112096;28;20020;-76
2022/03/24 11:14:54;;;;;;;11.63;7.57;;;;;;;22.75;17.81;100997.94;5108542;28;20036;-76